TimeCDT,TemperatureF,Dew PointF,Humidity,Sea Level PressureIn,VisibilityMPH,Wind Direction,Wind SpeedMPH,Gust SpeedMPH,PrecipitationIn,Events,Conditions,WindDirDegrees,DateUTC
12:55 AM,82.4,67.5,60,29.90,10.0,SE,8.1,-,N/A,,Mostly Cloudy,140,2013-07-14 05:55:00
1:55 AM,81.3,65.8,59,29.89,10.0,South,9.2,-,N/A,,Mostly Cloudy,170,2013-07-14 06:55:00
2:29 AM,80.6,64.4,58,29.98,10.0,East,11.5,-,N/A,,Overcast,90,2013-07-14 07:29:00
2:32 AM,80.6,66.2,61,29.99,9.0,East,17.3,26.5,N/A,Rain,Light Rain,90,2013-07-14 07:32:00
2:42 AM,75.2,69.8,83,29.99,2.5,ESE,18.4,26.5,N/A,Rain,Light Rain,120,2013-07-14 07:42:00
2:44 AM,73.4,69.8,88,29.99,2.5,SE,17.3,25.3,N/A,Rain,Light Rain,130,2013-07-14 07:44:00
2:49 AM,73.4,68.0,83,29.97,3.0,SSE,15.0,27.6,N/A,Rain,Rain,150,2013-07-14 07:49:00
2:54 AM,71.6,68.0,88,29.95,5.0,SSE,12.7,27.6,N/A,Rain,Rain,150,2013-07-14 07:54:00
2:58 AM,72.1,67.8,86,29.93,6.0,SSE,9.2,24.2,0.14,Rain,Light Rain,150,2013-07-14 07:58:00
3:15 AM,71.6,68.0,88,29.96,10.0,South,15.0,-,N/A,,Scattered Clouds,170,2013-07-14 08:15:00
3:58 AM,71.1,67.8,89,29.96,10.0,Variable,5.8,-,0.01,,Mostly Cloudy,0,2013-07-14 08:58:00
4:27 AM,71.6,68.0,88,30.01,10.0,NE,8.1,-,N/A,Rain,Light Rain,40,2013-07-14 09:27:00
4:32 AM,71.6,68.0,88,30.02,7.0,Variable,3.5,-,N/A,Rain-Thunderstorm,Light Rain,0,2013-07-14 09:32:00
4:37 AM,71.6,68.0,88,30.00,2.5,South,5.8,-,N/A,Rain-Thunderstorm,Heavy Rain,190,2013-07-14 09:37:00
4:42 AM,69.8,68.0,94,29.98,2.5,South,9.2,-,N/A,Rain-Thunderstorm,Heavy Rain,170,2013-07-14 09:42:00
4:47 AM,69.8,68.0,94,29.97,5.0,South,10.4,-,N/A,Rain-Thunderstorm,Light Rain,170,2013-07-14 09:47:00
4:52 AM,69.8,68.0,94,29.97,9.0,South,12.7,-,N/A,Rain-Thunderstorm,Light Rain,180,2013-07-14 09:52:00
4:58 AM,69.8,68.2,95,29.94,10.0,South,13.8,-,N/A,Rain-Thunderstorm,Light Rain,180,2013-07-14 09:58:00
5:55 AM,68.0,66.2,94,29.92,10.0,South,13.8,-,0.05,Rain,Light Rain,170,2013-07-14 10:55:00
6:18 AM,68.0,66.2,94,30.00,8.0,East,8.1,-,N/A,Rain,Rain,100,2013-07-14 11:18:00
6:28 AM,68.0,66.2,94,30.01,6.0,Variable,3.5,-,N/A,Rain-Thunderstorm,Light Rain,0,2013-07-14 11:28:00
6:33 AM,68.0,66.2,94,30.03,5.0,ENE,5.8,-,N/A,Rain-Thunderstorm,Rain,60,2013-07-14 11:33:00
6:38 AM,68.0,66.2,94,30.04,5.0,NNE,5.8,-,N/A,Rain-Thunderstorm,Rain,20,2013-07-14 11:38:00
6:42 AM,68.0,66.2,94,30.04,5.0,East,4.6,-,N/A,Rain-Thunderstorm,Thunderstorms and Rain,80,2013-07-14 11:42:00
6:50 AM,68.0,66.2,94,30.03,3.0,SSE,5.8,-,N/A,Rain-Thunderstorm,Light Thunderstorms and Rain,160,2013-07-14 11:50:00
6:55 AM,68.0,66.2,94,30.03,3.0,South,8.1,-,N/A,Rain-Thunderstorm,Thunderstorms and Rain,170,2013-07-14 11:55:00
6:58 AM,67.5,66.4,96,30.01,3.0,South,8.1,-,0.15,Rain-Thunderstorm,Thunderstorms and Rain,170,2013-07-14 11:58:00
7:09 AM,68.0,66.2,94,30.04,9.0,Variable,1.2,-,N/A,Rain-Thunderstorm,Light Rain,0,2013-07-14 12:09:00
7:17 AM,68.0,66.2,94,30.04,7.0,SSW,5.8,-,N/A,Rain-Thunderstorm,Light Thunderstorms and Rain,200,2013-07-14 12:17:00
7:32 AM,68.0,66.2,94,30.04,6.0,SW,4.6,-,N/A,Rain,Light Rain,230,2013-07-14 12:32:00
7:38 AM,68.0,66.2,94,30.05,5.0,SSW,4.6,-,N/A,Rain-Thunderstorm,Light Thunderstorms and Rain,200,2013-07-14 12:38:00
7:53 AM,68.0,66.2,94,30.07,4.0,SSW,4.6,-,N/A,Rain,Rain,210,2013-07-14 12:53:00
7:58 AM,68.0,66.2,94,30.06,4.0,SSW,5.8,-,0.09,Rain,Light Rain,200,2013-07-14 12:58:00
8:01 AM,68.0,66.2,94,30.07,4.0,SSW,6.9,-,N/A,Rain-Thunderstorm,Thunderstorms and Rain,210,2013-07-14 13:01:00
8:06 AM,68.0,66.2,94,30.07,5.0,SW,5.8,-,N/A,Rain-Thunderstorm,Thunderstorms and Rain,220,2013-07-14 13:06:00
8:11 AM,68.0,66.2,94,30.07,5.0,SSW,9.2,-,N/A,Rain-Thunderstorm,Thunderstorms and Rain,210,2013-07-14 13:11:00
8:16 AM,66.2,66.2,100,30.06,5.0,SSW,10.4,-,N/A,Rain,Rain,200,2013-07-14 13:16:00
8:18 AM,66.2,66.2,100,30.06,5.0,SSW,11.5,-,N/A,Rain-Thunderstorm,Thunderstorms and Rain,200,2013-07-14 13:18:00
8:23 AM,66.2,66.2,100,30.05,5.0,SSW,13.8,-,N/A,Rain-Thunderstorm,Thunderstorms and Rain,210,2013-07-14 13:23:00
8:38 AM,66.2,66.2,100,30.05,5.0,SSW,12.7,-,N/A,Rain,Rain,200,2013-07-14 13:38:00
8:58 AM,66.4,66.0,99,30.01,6.0,SW,12.7,-,0.18,Rain,Rain,230,2013-07-14 13:58:00
9:01 AM,66.2,66.2,100,30.03,7.0,SW,11.5,-,N/A,Rain,Light Rain,230,2013-07-14 14:01:00
9:11 AM,66.2,66.2,100,30.04,7.0,SW,13.8,-,N/A,Rain,Light Rain,220,2013-07-14 14:11:00
9:21 AM,66.2,64.4,94,30.06,10.0,WSW,8.1,-,N/A,Rain,Light Rain,240,2013-07-14 14:21:00
9:26 AM,66.2,66.2,100,30.06,7.0,West,6.9,-,N/A,Rain,Light Rain,270,2013-07-14 14:26:00
9:36 AM,66.2,66.2,100,30.06,6.0,WSW,8.1,-,N/A,Rain,Light Rain,250,2013-07-14 14:36:00
9:46 AM,66.2,66.2,100,30.05,5.0,SW,5.8,-,N/A,Rain,Rain,230,2013-07-14 14:46:00
9:51 AM,66.2,66.2,100,30.05,7.0,SW,5.8,-,N/A,Rain,Light Rain,220,2013-07-14 14:51:00
9:58 AM,66.2,65.3,97,30.04,6.0,SW,5.8,-,0.06,Rain,Light Rain,230,2013-07-14 14:58:00
10:08 AM,66.2,66.2,100,30.05,8.0,SSW,5.8,-,N/A,Rain,Light Rain,200,2013-07-14 15:08:00
10:13 AM,66.2,66.2,100,30.04,8.0,SSW,6.9,-,N/A,Rain,Light Rain,210,2013-07-14 15:13:00
10:23 AM,66.2,66.2,100,30.03,8.0,SSW,9.2,-,N/A,Rain,Light Rain,200,2013-07-14 15:23:00
10:38 AM,66.2,66.2,100,30.03,10.0,SW,8.1,-,N/A,Rain,Light Rain,220,2013-07-14 15:38:00
10:47 AM,66.2,66.2,100,30.02,10.0,SW,8.1,-,N/A,Rain,Light Rain,220,2013-07-14 15:47:00
10:58 AM,67.1,66.7,99,30.01,10.0,SSW,11.5,-,0.03,Rain,Light Rain,200,2013-07-14 15:58:00
11:03 AM,68.0,66.2,94,30.01,10.0,South,10.4,-,N/A,Rain,Light Rain,190,2013-07-14 16:03:00
11:08 AM,66.2,66.2,100,30.01,9.0,SSW,10.4,-,N/A,Rain,Light Rain,210,2013-07-14 16:08:00
11:18 AM,66.2,66.2,100,30.02,8.0,SSW,6.9,-,N/A,Rain,Light Rain,200,2013-07-14 16:18:00
11:23 AM,66.2,66.2,100,30.03,7.0,SSW,9.2,-,N/A,Rain,Light Rain,200,2013-07-14 16:23:00
11:58 AM,67.1,67.1,100,30.03,5.0,SSW,9.2,-,0.09,Rain,Light Rain,200,2013-07-14 16:58:00
12:25 PM,66.2,66.2,100,30.03,4.0,SSE,5.8,-,N/A,Rain,Rain,160,2013-07-14 17:25:00
12:40 PM,66.2,66.2,100,30.01,4.0,SSW,16.1,-,N/A,Rain,Rain,200,2013-07-14 17:40:00
12:50 PM,66.2,66.2,100,30.00,8.0,South,10.4,-,N/A,Rain,Light Rain,180,2013-07-14 17:50:00
12:55 PM,66.2,66.2,100,30.01,10.0,South,8.1,-,N/A,Rain,Light Rain,180,2013-07-14 17:55:00
12:58 PM,66.9,66.9,100,29.99,10.0,South,6.9,-,0.18,Rain,Light Rain,180,2013-07-14 17:58:00
1:02 PM,66.2,66.2,100,30.01,10.0,South,6.9,-,N/A,,Mostly Cloudy,180,2013-07-14 18:02:00
1:07 PM,66.2,66.2,100,30.01,10.0,South,8.1,-,N/A,,Scattered Clouds,190,2013-07-14 18:07:00
1:58 PM,67.5,65.8,95,30.01,10.0,SSW,5.8,-,0.00,,Partly Cloudy,210,2013-07-14 18:58:00
2:58 PM,68.4,65.3,90,30.01,10.0,South,3.5,-,N/A,,Mostly Cloudy,190,2013-07-14 19:58:00
3:13 PM,68.0,64.4,88,30.02,10.0,East,4.6,-,N/A,,Mostly Cloudy,80,2013-07-14 20:13:00
3:28 PM,68.0,66.2,94,30.02,10.0,ESE,4.6,-,N/A,,Scattered Clouds,120,2013-07-14 20:28:00
3:58 PM,69.1,65.5,88,30.00,10.0,East,4.6,-,N/A,,Partly Cloudy,80,2013-07-14 20:58:00
4:58 PM,71.6,64.4,78,29.99,10.0,Calm,Calm,-,N/A,,Partly Cloudy,0,2013-07-14 21:58:00
5:58 PM,75.2,64.4,69,29.98,10.0,Variable,4.6,-,N/A,,Scattered Clouds,0,2013-07-14 22:58:00
6:59 PM,73.0,64.4,74,29.99,10.0,WSW,2.3,-,N/A,,Partly Cloudy,250,2013-07-14 23:59:00
7:39 PM,73.4,64.4,73,30.00,10.0,SSE,2.3,-,N/A,Rain,Light Rain,150,2013-07-15 00:39:00
7:40 PM,73.4,64.4,73,30.00,10.0,Variable,1.2,-,N/A,Rain,Light Rain,0,2013-07-15 00:40:00
7:50 PM,71.6,66.2,83,30.00,9.0,NNE,4.6,-,N/A,,Mostly Cloudy,30,2013-07-15 00:50:00
7:58 PM,71.6,66.2,83,29.99,10.0,North,5.8,-,N/A,,Scattered Clouds,10,2013-07-15 00:58:00
8:28 PM,71.6,66.2,83,30.01,10.0,North,2.3,-,N/A,,Light Drizzle,350,2013-07-15 01:28:00
8:38 PM,71.6,66.2,83,30.02,10.0,North,1.2,-,N/A,,Clear,10,2013-07-15 01:38:00
8:51 PM,71.6,68.0,88,30.04,10.0,ESE,8.1,-,N/A,Thunderstorm,Light Drizzle,120,2013-07-15 01:51:00
8:55 PM,69.8,66.2,88,30.04,10.0,East,9.2,-,N/A,Rain-Thunderstorm,Light Thunderstorms and Rain,100,2013-07-15 01:55:00
8:58 PM,70.3,65.3,84,30.04,10.0,East,10.4,-,0.00,Rain-Thunderstorm,Light Thunderstorms and Rain,100,2013-07-15 01:58:00
9:01 PM,69.8,64.4,83,30.05,10.0,East,11.5,-,N/A,Rain-Thunderstorm,Light Thunderstorms and Rain,100,2013-07-15 02:01:00
9:06 PM,69.8,62.6,78,30.05,7.0,ESE,8.1,-,N/A,Rain-Thunderstorm,Light Thunderstorms and Rain,120,2013-07-15 02:06:00
9:11 PM,68.0,60.8,78,30.05,6.0,SE,8.1,-,N/A,Rain-Thunderstorm,Light Thunderstorms and Rain,130,2013-07-15 02:11:00
9:16 PM,68.0,60.8,78,30.04,9.0,SE,9.2,-,N/A,Rain-Thunderstorm,Light Thunderstorms and Rain,140,2013-07-15 02:16:00
9:21 PM,66.2,59.0,78,30.04,10.0,SE,8.1,-,N/A,Rain-Thunderstorm,Light Thunderstorms and Rain,140,2013-07-15 02:21:00
9:25 PM,66.2,60.8,83,30.03,10.0,ESE,6.9,-,N/A,Rain,Light Rain,120,2013-07-15 02:25:00
9:41 PM,64.4,59.0,83,30.06,10.0,SE,8.1,-,N/A,Rain,Light Rain,140,2013-07-15 02:41:00
9:58 PM,64.4,60.8,88,30.08,10.0,SE,6.9,-,0.02,Rain,Light Rain,140,2013-07-15 02:58:00
10:12 PM,64.4,62.6,94,30.08,10.0,SSE,8.1,-,N/A,,Scattered Clouds,150,2013-07-15 03:12:00
10:16 PM,64.4,62.6,94,30.08,10.0,SSE,10.4,-,N/A,,Light Drizzle,160,2013-07-15 03:16:00
10:58 PM,63.5,61.5,93,30.06,10.0,WSW,2.3,-,0.02,Rain,Light Rain,240,2013-07-15 03:58:00
11:23 PM,64.4,60.8,88,30.06,10.0,SW,1.2,-,N/A,,Partly Cloudy,220,2013-07-15 04:23:00
11:41 PM,64.4,60.8,88,30.04,10.0,NW,2.3,-,N/A,Rain,Light Rain,310,2013-07-15 04:41:00
11:52 PM,64.4,62.6,94,30.02,10.0,NNW,8.1,-,N/A,,Partly Cloudy,340,2013-07-15 04:52:00
11:59 PM,64.4,62.1,92,30.03,10.0,NNW,6.9,-,0.01,,Partly Cloudy,330,2013-07-15 04:59:00